Time;durP1;ratioP1;P1;durP2;ratioP2;P2;SDS_P1;SDS_P2;PMS_P1;PMS_P2;Temp;Humidity;BMP_temperature;BMP_pressure;BME280_temperature;BME280_humidity;BME280_pressure;Samples;Min_cycle;Max_cycle;Signal;HPM_P1;HPM_P2
2023/09/17 00:01:02;;;;;;;6.23;5.73;;;16.30;1.00;;;;;;5053384;28;20519;-76
2023/09/17 00:03:28;;;;;;;10.33;6.50;;;16.20;1.00;;;;;;5054297;28;20209;-76
2023/09/17 00:05:54;;;;;;;6.93;6.33;;;16.30;1.30;;;;;;5053413;28;20167;-76
2023/09/17 00:08:19;;;;;;;7.87;7.20;;;16.30;5.30;;;;;;5052990;28;20597;-76
2023/09/17 00:10:45;;;;;;;8.40;7.10;;;16.20;7.50;;;;;;5053791;28;20254;-76
2023/09/17 00:13:12;;;;;;;7.80;7.10;;;16.20;11.30;;;;;;5053959;28;20194;-76
2023/09/17 00:15:38;;;;;;;7.97;7.27;;;16.20;13.50;;;;;;5053185;28;20397;-76
2023/09/17 00:18:04;;;;;;;8.20;7.40;;;16.20;16.30;;;;;;5053946;28;20987;-76
2023/09/17 00:20:30;;;;;;;7.47;6.87;;;16.20;19.00;;;;;;5053088;28;20228;-76
2023/09/17 00:22:56;;;;;;;9.67;6.90;;;16.10;19.80;;;;;;5053824;28;20484;-76
2023/09/17 00:25:21;;;;;;;7.57;6.97;;;16.10;22.00;;;;;;5053100;28;20167;-76
2023/09/17 00:27:47;;;;;;;8.00;7.27;;;16.10;23.80;;;;;;5053536;28;20199;-76
2023/09/17 00:30:13;;;;;;;7.90;7.20;;;16.10;26.40;;;;;;5053321;28;20194;-76
2023/09/17 00:32:40;;;;;;;6.27;5.80;;;16.10;29.60;;;;;;5053617;28;20194;-76
2023/09/17 00:35:06;;;;;;;7.87;7.10;;;16.00;33.10;;;;;;5053702;28;20401;-76
2023/09/17 00:37:31;;;;;;;9.10;6.50;;;16.00;37.50;;;;;;5052785;28;20555;-76
2023/09/17 00:39:57;;;;;;;7.80;7.10;;;16.00;39.00;;;;;;5052323;28;20976;-76
2023/09/17 00:42:23;;;;;;;7.10;6.50;;;16.00;42.70;;;;;;5053573;28;20253;-76
2023/09/17 00:44:49;;;;;;;8.47;7.77;;;16.00;44.80;;;;;;5053514;28;20171;-76
2023/09/17 00:47:15;;;;;;;7.70;7.00;;;16.00;49.20;;;;;;5051674;28;20491;-76
2023/09/17 00:49:42;;;;;;;8.00;7.30;;;15.90;54.60;;;;;;5053534;28;20159;-76
2023/09/17 00:52:17;;;;;;;6.30;5.80;;;16.00;59.40;;;;;;5053297;28;20432;-76
2023/09/17 00:54:44;;;;;;;8.17;6.53;;;15.90;63.10;;;;;;5051993;28;20496;-76
2023/09/17 00:57:11;;;;;;;6.93;6.43;;;15.90;66.40;;;;;;5051392;28;20782;-76
2023/09/17 00:59:37;;;;;;;7.30;6.80;;;15.90;69.50;;;;;;5053272;28;20416;-76
2023/09/17 01:02:04;;;;;;;8.63;6.53;;;15.90;72.10;;;;;;5053072;28;20481;-76
2023/09/17 01:04:31;;;;;;;8.43;7.60;;;15.80;73.90;;;;;;5051828;28;20410;-76
2023/09/17 01:06:58;;;;;;;8.03;7.33;;;15.90;75.70;;;;;;5051647;28;20937;-76
2023/09/17 01:09:25;;;;;;;8.57;7.20;;;15.90;78.80;;;;;;5052978;28;20401;-76
2023/09/17 01:11:51;;;;;;;8.93;7.80;;;15.80;81.30;;;;;;5052012;28;20421;-77
2023/09/17 01:14:18;;;;;;;7.07;6.57;;;15.80;88.40;;;;;;5053077;28;20453;-76
2023/09/17 01:16:45;;;;;;;10.70;7.07;;;15.90;92.20;;;;;;5050905;28;20767;-76
2023/09/17 01:19:32;;;;;;;7.03;6.50;;;15.90;94.10;;;;;;5053057;28;20425;-76
2023/09/17 01:22:20;;;;;;;10.17;8.53;;;15.90;94.20;;;;;;5052905;28;20402;-76
2023/09/17 01:24:56;;;;;;;8.20;7.50;;;15.80;94.20;;;;;;5052249;28;20458;-76
2023/09/17 01:27:23;;;;;;;7.80;7.10;;;15.80;94.20;;;;;;5050842;28;20428;-76
2023/09/17 01:29:49;;;;;;;7.90;7.30;;;15.80;94.20;;;;;;5051906;28;20744;-76
2023/09/17 01:32:17;;;;;;;8.20;7.40;;;15.80;94.20;;;;;;5052653;28;20500;-76
2023/09/17 01:34:45;;;;;;;6.47;5.97;;;15.70;94.10;;;;;;5052826;28;20496;-76
2023/09/17 01:37:23;;;;;;;8.07;7.47;;;15.70;94.10;;;;;;5051954;28;20425;-76
2023/09/17 01:39:56;;;;;;;8.70;7.20;;;15.70;94.10;;;;;;5052797;28;20450;-76
2023/09/17 01:42:23;;;;;;;8.30;7.60;;;15.70;94.10;;;;;;5052282;28;20408;-76
2023/09/17 01:44:49;;;;;;;7.63;6.80;;;15.60;94.10;;;;;;5052622;28;20489;-76
2023/09/17 01:47:17;;;;;;;8.10;7.40;;;15.60;94.10;;;;;;5051733;28;20433;-76
2023/09/17 01:49:44;;;;;;;8.07;7.37;;;15.60;94.10;;;;;;5052681;28;20416;-77
2023/09/17 01:52:11;;;;;;;7.17;6.57;;;15.60;94.10;;;;;;5052599;28;20402;-76
2023/09/17 01:54:37;;;;;;;7.07;6.37;;;15.60;94.10;;;;;;5052499;28;20952;-76
2023/09/17 01:57:03;;;;;;;7.80;6.70;;;15.60;94.10;;;;;;5050501;28;20437;-76
2023/09/17 01:59:29;;;;;;;8.30;7.50;;;15.60;94.10;;;;;;5050602;28;20434;-76
2023/09/17 02:01:54;;;;;;;8.23;7.60;;;15.60;94.10;;;;;;5051504;28;20451;-76
2023/09/17 02:04:20;;;;;;;7.77;7.17;;;15.70;98.20;;;;;;5052613;28;20214;-76
2023/09/17 02:06:47;;;;;;;8.47;7.70;;;15.70;99.90;;;;;;5051515;28;20210;-76
2023/09/17 02:09:13;;;;;;;7.30;6.50;;;15.70;99.90;;;;;;5052583;28;20654;-76
2023/09/17 02:11:39;;;;;;;8.27;7.47;;;15.70;99.90;;;;;;5052465;28;20398;-76
2023/09/17 02:14:05;;;;;;;8.10;7.40;;;15.70;99.90;;;;;;5052284;28;20440;-76
2023/09/17 02:16:33;;;;;;;8.27;7.57;;;15.70;99.90;;;;;;5054663;28;20547;-76
2023/09/17 02:18:59;;;;;;;8.00;7.30;;;15.70;99.90;;;;;;5056282;28;20171;-76
2023/09/17 02:21:25;;;;;;;8.23;7.53;;;15.80;99.90;;;;;;5056238;28;20397;-76
2023/09/17 02:23:51;;;;;;;8.20;7.50;;;15.80;99.90;;;;;;5054960;28;20181;-76
2023/09/17 02:26:16;;;;;;;7.33;6.73;;;15.80;99.90;;;;;;5055197;28;20273;-76
2023/09/17 02:28:42;;;;;;;8.73;7.67;;;15.80;99.90;;;;;;5055032;28;20984;-76
2023/09/17 02:31:08;;;;;;;8.00;7.30;;;15.80;99.90;;;;;;5055166;28;20167;-76
2023/09/17 02:33:33;;;;;;;7.70;7.00;;;15.80;99.90;;;;;;5055800;28;20556;-76
2023/09/17 02:36:00;;;;;;;8.30;7.50;;;15.80;99.90;;;;;;5054585;28;20163;-76
2023/09/17 02:38:26;;;;;;;10.70;8.53;;;15.90;99.90;;;;;;5055944;28;20228;-76
2023/09/17 02:40:52;;;;;;;8.43;7.73;;;15.90;99.90;;;;;;5055902;28;20397;-77
2023/09/17 02:43:18;;;;;;;9.43;8.53;;;15.90;99.90;;;;;;5055801;28;20410;-76
2023/09/17 02:45:44;;;;;;;9.90;8.90;;;15.90;99.90;;;;;;5055117;28;20405;-76
2023/09/17 02:48:14;;;;;;;9.17;8.37;;;15.90;99.90;;;;;;5054300;28;20195;-76
2023/09/17 02:50:39;;;;;;;8.97;8.07;;;16.00;99.90;;;;;;5055480;28;20420;-76
2023/09/17 02:53:07;;;;;;;10.03;9.00;;;16.00;99.90;;;;;;5055295;28;20448;-76
2023/09/17 02:55:34;;;;;;;9.80;8.90;;;15.90;99.90;;;;;;5054737;28;20166;-76
2023/09/17 02:58:02;;;;;;;10.37;8.70;;;16.00;99.90;;;;;;5053489;28;20456;-76
2023/09/17 03:00:33;;;;;;;9.80;8.50;;;16.00;99.90;;;;;;5051594;28;20433;-76
2023/09/17 03:02:59;;;;;;;9.30;8.50;;;16.00;99.90;;;;;;5035621;28;20398;-76
2023/09/17 03:05:25;;;;;;;9.83;8.83;;;15.90;99.90;;;;;;5034615;28;20485;-76
2023/09/17 03:07:51;;;;;;;9.40;8.53;;;16.00;99.90;;;;;;5035512;28;20422;-76
2023/09/17 03:10:18;;;;;;;9.63;8.67;;;15.90;99.90;;;;;;5034768;28;20167;-76
2023/09/17 03:12:46;;;;;;;8.83;8.07;;;15.90;99.90;;;;;;5034988;28;20206;-76
2023/09/17 03:15:12;;;;;;;8.73;7.93;;;15.90;99.90;;;;;;5033728;28;20472;-76
2023/09/17 03:17:38;;;;;;;9.93;8.80;;;15.90;99.90;;;;;;5034599;28;20422;-75
2023/09/17 03:20:14;;;;;;;8.77;7.97;;;15.90;99.90;;;;;;5035289;28;20896;-76
2023/09/17 03:22:40;;;;;;;7.17;6.60;;;15.80;99.90;;;;;;5035107;28;20413;-76
2023/09/17 03:25:06;;;;;;;7.70;7.03;;;15.80;99.90;;;;;;5034781;28;20406;-76
2023/09/17 03:27:33;;;;;;;9.23;8.20;;;15.80;99.90;;;;;;5033285;28;20458;-76
2023/09/17 03:30:03;;;;;;;7.90;7.30;;;15.80;99.90;;;;;;5035079;28;20417;-76
2023/09/17 03:32:29;;;;;;;8.07;7.47;;;15.90;99.90;;;;;;5035099;28;20460;-76
2023/09/17 03:34:56;;;;;;;8.13;7.43;;;15.80;99.90;;;;;;5034999;28;20399;-76
2023/09/17 03:37:22;;;;;;;8.90;8.10;;;15.80;99.90;;;;;;5033871;28;20414;-76
2023/09/17 03:40:08;;;;;;;8.43;7.60;;;15.80;99.90;;;;;;5034975;28;20482;-76
2023/09/17 03:42:35;;;;;;;7.73;7.03;;;15.70;99.90;;;;;;5033554;28;20521;-76
2023/09/17 03:45:05;;;;;;;8.87;8.13;;;15.60;99.90;;;;;;5034441;28;20438;-76
2023/09/17 03:47:32;;;;;;;7.20;6.60;;;15.60;99.90;;;;;;5033997;28;20457;-76
2023/09/17 03:49:58;;;;;;;8.77;7.90;;;15.60;99.90;;;;;;5034643;28;20816;-76
2023/09/17 03:52:28;;;;;;;8.43;7.53;;;15.60;99.90;;;;;;5034542;28;20464;-76
2023/09/17 03:54:54;;;;;;;8.50;7.70;;;15.50;99.90;;;;;;5033296;28;20938;-76
2023/09/17 03:57:19;;;;;;;8.17;7.47;;;15.50;99.90;;;;;;5033135;28;20507;-76
2023/09/17 03:59:45;;;;;;;7.90;7.20;;;15.40;99.90;;;;;;5032939;28;20172;-76
2023/09/17 04:02:11;;;;;;;8.70;7.90;;;15.40;99.90;;;;;;5033089;28;20175;-76
2023/09/17 04:04:36;;;;;;;8.53;7.80;;;15.40;99.90;;;;;;5034282;28;20168;-76
2023/09/17 04:07:03;;;;;;;10.23;8.70;;;15.30;99.90;;;;;;5032234;28;20197;-76
2023/09/17 04:09:30;;;;;;;10.37;9.03;;;15.30;99.90;;;;;;5038644;28;20168;-76
2023/09/17 04:11:57;;;;;;;9.80;8.90;;;15.30;99.90;;;;;;5034154;28;20507;-76
2023/09/17 04:14:23;;;;;;;15.00;9.83;;;15.30;99.90;;;;;;5054068;28;20448;-76
2023/09/17 04:16:49;;;;;;;15.27;9.23;;;15.30;99.90;;;;;;5037666;28;20496;-76
2023/09/17 04:19:15;;;;;;;10.97;9.87;;;15.30;99.90;;;;;;5033577;28;20391;-76
2023/09/17 04:21:41;;;;;;;10.23;9.43;;;15.30;99.90;;;;;;5034327;28;20156;-76
2023/09/17 04:24:07;;;;;;;9.20;8.37;;;15.20;99.90;;;;;;5034035;28;20394;-76
2023/09/17 04:26:33;;;;;;;9.43;8.40;;;15.00;99.90;;;;;;5031729;28;20240;-76
2023/09/17 04:28:58;;;;;;;10.57;9.47;;;14.80;99.90;;;;;;5032906;28;20179;-76
2023/09/17 04:31:25;;;;;;;10.30;9.40;;;14.80;99.90;;;;;;5032488;28;20191;-76
2023/09/17 04:33:51;;;;;;;11.50;10.40;;;14.90;99.90;;;;;;5033766;28;20738;-76
2023/09/17 04:36:16;;;;;;;10.77;9.90;;;14.90;99.90;;;;;;5040034;28;20430;-76
2023/09/17 04:38:42;;;;;;;9.97;8.97;;;14.90;99.90;;;;;;5051720;28;20496;-76
2023/09/17 04:41:08;;;;;;;10.80;9.70;;;14.90;99.90;;;;;;5051775;28;20187;-76
2023/09/17 04:43:33;;;;;;;10.17;9.27;;;14.90;99.90;;;;;;5051498;28;20183;-76
2023/09/17 04:46:00;;;;;;;9.03;8.23;;;14.90;99.90;;;;;;5043480;28;20185;-76
2023/09/17 04:48:26;;;;;;;10.03;8.87;;;14.90;99.90;;;;;;5033605;28;20249;-76
2023/09/17 04:50:51;;;;;;;9.70;8.90;;;14.90;99.90;;;;;;5033170;28;20402;-76
2023/09/17 04:53:17;;;;;;;9.93;9.03;;;14.80;99.90;;;;;;5032879;28;20231;-75
2023/09/17 04:55:44;;;;;;;9.50;8.70;;;14.80;99.90;;;;;;5032785;28;20198;-76
2023/09/17 04:58:09;;;;;;;12.43;11.23;;;14.80;99.90;;;;;;5032972;28;20188;-76
2023/09/17 05:00:36;;;;;;;9.70;8.90;;;14.80;99.90;;;;;;5033087;28;20441;-76
2023/09/17 05:03:02;;;;;;;9.50;8.80;;;14.80;99.90;;;;;;5033414;28;20191;-76
2023/09/17 05:05:28;;;;;;;9.60;8.80;;;14.70;99.90;;;;;;5032396;28;20437;-76
2023/09/17 05:07:54;;;;;;;10.53;9.53;;;14.70;99.90;;;;;;5031484;28;20493;-76
2023/09/17 05:10:20;;;;;;;10.60;9.60;;;14.70;99.90;;;;;;5031812;28;20425;-76
2023/09/17 05:12:45;;;;;;;10.60;9.63;;;14.80;99.90;;;;;;5032979;28;20286;-76
2023/09/17 05:15:11;;;;;;;10.70;9.80;;;14.80;99.90;;;;;;5032423;28;20172;-76
2023/09/17 05:17:37;;;;;;;11.00;10.00;;;14.80;99.90;;;;;;5032343;28;20426;-76
2023/09/17 05:20:06;;;;;;;10.97;9.87;;;14.80;99.90;;;;;;5033129;28;20187;-76
2023/09/17 05:22:33;;;;;;;10.60;9.60;;;14.80;99.90;;;;;;5033171;28;20176;-76
2023/09/17 05:24:58;;;;;;;10.80;9.80;;;14.90;99.90;;;;;;5033087;28;20398;-76
2023/09/17 05:27:27;;;;;;;10.33;9.37;;;14.90;99.90;;;;;;5030632;28;20437;-76
2023/09/17 05:29:52;;;;;;;10.97;9.97;;;14.90;99.90;;;;;;5032871;28;20203;-76
2023/09/17 05:32:18;;;;;;;11.63;10.63;;;15.00;99.90;;;;;;5032562;28;20473;-76
2023/09/17 05:34:44;;;;;;;11.47;10.37;;;15.00;99.90;;;;;;5032966;28;20168;-76
2023/09/17 05:37:10;;;;;;;10.23;9.37;;;15.10;99.90;;;;;;5032052;28;20552;-76
2023/09/17 05:39:35;;;;;;;11.57;10.37;;;15.20;99.90;;;;;;5032805;28;20171;-76
2023/09/17 05:42:01;;;;;;;11.00;10.00;;;15.20;99.90;;;;;;5047877;28;20264;-76
2023/09/17 05:44:27;;;;;;;13.87;11.10;;;15.30;99.90;;;;;;5034628;28;20652;-76
2023/09/17 05:46:53;;;;;;;11.07;9.87;;;15.40;99.90;;;;;;5031088;28;20197;-76
2023/09/17 05:49:18;;;;;;;12.67;10.33;;;15.40;99.90;;;;;;5034222;28;20179;-76
2023/09/17 05:51:44;;;;;;;10.47;9.37;;;15.40;99.90;;;;;;5036933;28;20178;-75
2023/09/17 05:54:10;;;;;;;10.53;9.43;;;15.50;99.90;;;;;;5036845;28;20241;-76
2023/09/17 05:56:36;;;;;;;10.03;9.17;;;15.50;99.90;;;;;;5035859;28;20950;-76
2023/09/17 05:59:01;;;;;;;10.27;9.30;;;15.50;99.90;;;;;;5036584;28;20214;-75
2023/09/17 06:01:27;;;;;;;11.83;10.80;;;15.60;99.90;;;;;;5036275;28;20184;-75
2023/09/17 06:03:53;;;;;;;10.77;9.77;;;15.60;99.90;;;;;;5036127;28;20636;-77
2023/09/17 06:06:19;;;;;;;11.17;10.20;;;15.60;99.90;;;;;;5034545;28;20179;-75
2023/09/17 06:08:45;;;;;;;15.20;13.57;;;15.70;99.90;;;;;;5036160;28;20275;-75
2023/09/17 06:11:11;;;;;;;12.20;11.00;;;15.70;99.90;;;;;;5035357;28;20781;-77
2023/09/17 06:13:37;;;;;;;11.93;10.83;;;15.80;99.90;;;;;;5036150;28;20567;-75
2023/09/17 06:16:03;;;;;;;11.77;10.67;;;15.90;99.90;;;;;;5035305;28;20442;-75
2023/09/17 06:18:32;;;;;;;12.37;11.17;;;16.00;99.90;;;;;;5036551;28;20241;-76
2023/09/17 06:20:58;;;;;;;11.77;10.63;;;16.00;99.90;;;;;;5035853;28;20477;-76
2023/09/17 06:23:24;;;;;;;11.73;10.63;;;16.10;99.90;;;;;;5036337;28;20811;-76
2023/09/17 06:25:50;;;;;;;12.00;10.80;;;16.10;99.90;;;;;;5035487;28;20456;-75
2023/09/17 06:28:16;;;;;;;11.30;10.37;;;16.10;99.90;;;;;;5035536;28;20274;-76
2023/09/17 06:30:42;;;;;;;11.17;10.20;;;16.20;99.90;;;;;;5052739;28;20639;-76
2023/09/17 06:33:08;;;;;;;12.00;10.97;;;16.20;99.90;;;;;;5056095;28;20461;-76
2023/09/17 06:35:34;;;;;;;11.93;10.73;;;16.30;99.90;;;;;;5055236;28;20191;-76
2023/09/17 06:37:59;;;;;;;12.13;10.93;;;16.30;99.90;;;;;;5055849;28;20397;-76
2023/09/17 06:40:25;;;;;;;16.60;11.70;;;16.40;99.90;;;;;;5054272;28;20171;-76
2023/09/17 06:42:51;;;;;;;11.67;10.57;;;16.50;99.90;;;;;;5045651;28;20187;-76
2023/09/17 06:45:18;;;;;;;14.73;13.23;;;16.50;99.90;;;;;;5034950;28;20171;-76
2023/09/17 06:47:44;;;;;;;13.70;12.40;;;16.60;99.90;;;;;;5035252;28;20462;-76
2023/09/17 06:50:10;;;;;;;13.20;11.90;;;16.70;99.90;;;;;;5035947;28;20441;-76
2023/09/17 06:52:36;;;;;;;12.77;11.53;;;16.80;99.90;;;;;;5035800;28;20482;-76
2023/09/17 06:55:04;;;;;;;13.00;11.80;;;16.90;99.90;;;;;;5034731;28;20182;-76
2023/09/17 06:57:29;;;;;;;12.33;11.13;;;17.00;99.90;;;;;;5033545;28;20229;-76
2023/09/17 06:59:55;;;;;;;12.30;11.03;;;17.00;99.90;;;;;;5035548;28;20867;-76
2023/09/17 07:02:21;;;;;;;11.23;10.23;;;17.10;99.90;;;;;;5034957;28;20176;-76
2023/09/17 07:04:47;;;;;;;10.87;9.77;;;17.20;99.90;;;;;;5034355;28;20176;-76
2023/09/17 07:07:13;;;;;;;10.70;9.70;;;17.30;99.90;;;;;;5033438;28;20488;-76
2023/09/17 07:09:39;;;;;;;12.33;11.23;;;17.40;99.90;;;;;;5034358;28;20410;-76
2023/09/17 07:12:05;;;;;;;12.00;10.90;;;17.50;99.90;;;;;;5035091;28;20219;-76
2023/09/17 07:14:31;;;;;;;10.40;9.30;;;17.60;99.90;;;;;;5034188;28;20202;-76
2023/09/17 07:16:56;;;;;;;12.30;9.87;;;17.60;99.90;;;;;;5033620;28;20458;-76
2023/09/17 07:19:22;;;;;;;12.30;11.10;;;17.70;99.90;;;;;;5034421;28;20250;-76
2023/09/17 07:21:48;;;;;;;13.13;10.77;;;17.80;99.90;;;;;;5035498;28;20166;-76
2023/09/17 07:24:14;;;;;;;10.63;9.53;;;17.90;99.90;;;;;;5040838;28;20777;-76
2023/09/17 07:26:40;;;;;;;10.40;9.60;;;18.00;99.90;;;;;;5053247;28;20257;-76
2023/09/17 07:29:05;;;;;;;9.60;8.70;;;18.10;99.90;;;;;;5055219;28;20175;-76
2023/09/17 07:31:31;;;;;;;9.90;8.60;;;18.20;99.90;;;;;;5042485;28;20934;-76
2023/09/17 07:33:57;;;;;;;9.47;8.57;;;18.30;99.90;;;;;;5034563;28;20606;-76
2023/09/17 07:36:22;;;;;;;10.57;7.93;;;18.50;99.90;;;;;;5033728;28;20186;-76
2023/09/17 07:38:48;;;;;;;10.10;9.00;;;18.60;99.90;;;;;;5035037;28;20172;-76
2023/09/17 07:41:14;;;;;;;9.53;8.40;;;18.70;99.90;;;;;;5034971;28;20175;-76
2023/09/17 07:43:41;;;;;;;7.70;7.10;;;18.90;99.90;;;;;;5035038;28;20168;-76
2023/09/17 07:46:11;;;;;;;7.87;7.17;;;18.90;99.90;;;;;;5034226;28;20911;-77
2023/09/17 07:48:37;;;;;;;8.03;7.23;;;19.00;99.90;;;;;;5034726;28;20973;-77
2023/09/17 07:51:02;;;;;;;9.10;7.47;;;19.20;99.90;;;;;;5034949;28;20418;-76
2023/09/17 07:53:28;;;;;;;8.20;7.50;;;19.30;99.90;;;;;;5034084;28;20183;-76
2023/09/17 07:55:55;;;;;;;6.40;5.90;;;19.40;99.90;;;;;;5034075;28;20175;-76
2023/09/17 07:58:21;;;;;;;7.83;6.93;;;19.60;95.50;;;;;;5034626;28;20191;-76
2023/09/17 08:00:48;;;;;;;6.70;6.10;;;19.70;91.60;;;;;;5034540;28;20410;-77
2023/09/17 08:03:15;;;;;;;6.57;5.97;;;19.80;68.90;;;;;;5034622;28;20536;-77
2023/09/17 08:05:43;;;;;;;7.00;6.40;;;19.90;46.30;;;;;;5034010;28;20407;-76
2023/09/17 08:08:09;;;;;;;6.83;6.27;;;20.00;27.80;;;;;;5034305;28;20891;-77
2023/09/17 08:10:36;;;;;;;7.20;6.20;;;20.10;16.40;;;;;;5034240;28;20410;-76
2023/09/17 08:13:02;;;;;;;7.00;6.40;;;20.30;5.40;;;;;;5032668;28;20195;-76
2023/09/17 08:15:29;;;;;;;7.07;6.37;;;20.40;1.00;;;;;;5033655;28;20398;-77
2023/09/17 08:17:56;;;;;;;6.63;6.00;;;20.40;1.00;;;;;;5034249;28;20428;-77
2023/09/17 08:20:22;;;;;;;6.30;5.80;;;20.60;1.00;;;;;;5034159;28;20398;-77
2023/09/17 08:22:50;;;;;;;8.03;6.10;;;20.70;1.00;;;;;;5034079;28;20442;-77
2023/09/17 08:25:16;;;;;;;6.67;6.07;;;20.80;1.00;;;;;;5033529;28;20406;-76
2023/09/17 08:27:41;;;;;;;5.80;5.37;;;21.00;1.00;;;;;;5034010;28;20476;-77
2023/09/17 08:30:11;;;;;;;6.27;5.23;;;21.10;1.00;;;;;;5033897;28;20694;-76
2023/09/17 08:32:40;;;;;;;6.90;6.13;;;21.20;1.00;;;;;;5033349;28;20199;-76
2023/09/17 08:35:07;;;;;;;7.70;6.97;;;21.30;1.00;;;;;;5033001;28;20414;-77
2023/09/17 08:37:37;;;;;;;6.00;5.10;;;21.40;1.00;;;;;;5032039;28;20504;-77
2023/09/17 08:40:10;;;;;;;6.13;5.60;;;21.50;1.00;;;;;;5032623;28;20424;-77
2023/09/17 08:42:38;;;;;;;6.47;5.77;;;21.60;1.00;;;;;;5032532;28;20418;-76
2023/09/17 08:45:06;;;;;;;6.80;6.20;;;21.70;1.00;;;;;;5033850;28;20419;-76
2023/09/17 08:47:32;;;;;;;5.90;5.40;;;21.70;1.00;;;;;;5033144;28;21000;-77
2023/09/17 08:49:57;;;;;;;6.50;5.87;;;21.80;1.00;;;;;;5033308;28;20899;-77
2023/09/17 08:52:26;;;;;;;7.70;6.23;;;21.90;1.00;;;;;;5033373;28;20412;-77
2023/09/17 08:54:53;;;;;;;8.97;6.73;;;22.00;1.00;;;;;;5033526;28;20179;-76
2023/09/17 08:57:23;;;;;;;5.20;4.80;;;22.10;1.00;;;;;;5032857;28;20429;-77
2023/09/17 09:00:10;;;;;;;5.53;5.10;;;22.30;1.00;;;;;;5033644;28;20406;-77
2023/09/17 09:02:50;;;;;;;5.80;5.30;;;22.40;1.00;;;;;;5033422;28;20811;-77
2023/09/17 09:05:17;;;;;;;9.10;5.53;;;22.60;1.00;;;;;;5032811;28;20501;-77
2023/09/17 09:07:46;;;;;;;5.37;4.97;;;22.80;1.00;;;;;;5033335;28;20496;-77
2023/09/17 09:10:13;;;;;;;6.60;5.47;;;22.90;1.00;;;;;;5032892;28;20476;-77
2023/09/17 09:12:42;;;;;;;5.03;4.40;;;23.10;1.00;;;;;;5031986;28;20519;-77
2023/09/17 09:15:10;;;;;;;6.87;5.90;;;23.30;1.00;;;;;;5033169;28;20383;-77
2023/09/17 09:17:36;;;;;;;10.50;5.30;;;23.60;1.00;;;;;;5032843;28;20988;-77
2023/09/17 09:20:04;;;;;;;5.90;5.43;;;23.90;1.00;;;;;;5032186;28;20402;-77
2023/09/17 09:22:30;;;;;;;5.83;5.23;;;24.20;1.00;;;;;;5033666;28;20402;-77
2023/09/17 09:24:56;;;;;;;5.20;4.80;;;24.60;1.00;;;;;;5033197;28;20433;-78
2023/09/17 09:27:21;;;;;;;5.70;5.23;;;24.90;1.00;;;;;;5031963;28;20187;-77
2023/09/17 09:29:47;;;;;;;5.40;4.33;;;25.30;1.00;;;;;;5031887;28;20199;-77
2023/09/17 09:32:13;;;;;;;6.10;5.60;;;25.60;1.00;;;;;;5031708;28;20198;-77
2023/09/17 09:34:42;;;;;;;6.60;5.00;;;25.50;1.00;;;;;;5032919;28;20220;-77
2023/09/17 09:37:09;;;;;;;6.03;5.20;;;25.40;1.00;;;;;;5032320;28;20437;-78
2023/09/17 09:39:36;;;;;;;5.97;5.33;;;25.60;1.00;;;;;;5031955;28;20433;-77
2023/09/17 09:42:03;;;;;;;5.67;5.17;;;25.70;1.00;;;;;;5032909;28;20771;-77
2023/09/17 09:44:30;;;;;;;6.10;5.33;;;25.90;1.00;;;;;;5033058;28;20424;-79
2023/09/17 09:46:57;;;;;;;5.60;5.20;;;26.00;1.00;;;;;;5032159;28;20426;-77
2023/09/17 09:49:24;;;;;;;4.80;4.40;;;26.10;1.00;;;;;;5031443;28;20784;-77
2023/09/17 09:51:50;;;;;;;5.40;4.93;;;26.20;1.00;;;;;;5033031;28;20468;-78
2023/09/17 09:54:16;;;;;;;5.00;4.60;;;26.30;1.00;;;;;;5031467;28;20450;-78
2023/09/17 09:56:42;;;;;;;4.30;4.00;;;26.30;1.00;;;;;;5032084;28;20418;-79
2023/09/17 09:59:08;;;;;;;6.17;5.27;;;26.30;1.00;;;;;;5032906;28;20160;-79
2023/09/17 10:01:38;;;;;;;5.07;4.60;;;26.40;1.00;;;;;;5032735;28;20168;-79
2023/09/17 10:04:09;;;;;;;4.70;4.03;;;26.30;1.00;;;;;;5032738;28;20171;-78
2023/09/17 10:06:41;;;;;;;4.80;4.40;;;26.30;1.00;;;;;;5031937;28;20402;-77
2023/09/17 10:09:10;;;;;;;6.43;4.90;;;26.30;1.00;;;;;;5032332;28;20403;-79
2023/09/17 10:11:37;;;;;;;4.87;4.47;;;26.40;1.00;;;;;;5032638;28;20403;-78
2023/09/17 10:14:05;;;;;;;4.63;4.33;;;26.40;1.00;;;;;;5032580;28;20516;-77
2023/09/17 10:16:37;;;;;;;6.53;4.40;;;26.50;1.00;;;;;;5032139;28;20402;-77
2023/09/17 10:19:04;;;;;;;5.10;4.80;;;26.60;1.00;;;;;;5033249;28;20413;-76
2023/09/17 10:21:37;;;;;;;5.60;5.03;;;26.60;99.90;;;;;;5032410;28;20946;-79
2023/09/17 10:24:04;;;;;;;4.83;4.53;;;26.60;99.90;;;;;;5032377;28;20485;-78
2023/09/17 10:26:32;;;;;;;5.00;4.70;;;26.50;99.90;;;;;;5031605;28;20812;-78
2023/09/17 10:29:00;;;;;;;4.50;4.10;;;26.50;99.90;;;;;;5031313;28;20782;-76
2023/09/17 10:31:27;;;;;;;7.30;4.87;;;26.50;99.90;;;;;;5032476;28;20429;-77
2023/09/17 10:33:53;;;;;;;5.67;5.17;;;26.50;99.90;;;;;;5032416;28;21029;-76
2023/09/17 10:36:19;;;;;;;9.53;6.00;;;26.50;99.90;;;;;;5033300;28;20477;-78
2023/09/17 10:38:46;;;;;;;5.77;5.27;;;26.50;99.90;;;;;;5036184;28;20406;-77
2023/09/17 10:41:13;;;;;;;8.43;5.00;;;26.50;99.90;;;;;;5035889;28;20456;-78
2023/09/17 10:43:42;;;;;;;5.83;5.30;;;26.50;99.90;;;;;;5035896;28;20421;-76
2023/09/17 10:46:11;;;;;;;5.17;4.77;;;26.50;99.90;;;;;;5034046;28;20914;-78
2023/09/17 10:48:39;;;;;;;5.73;4.97;;;26.30;99.90;;;;;;5035805;28;20445;-76
2023/09/17 10:51:05;;;;;;;5.50;4.97;;;26.30;99.90;;;;;;5036155;28;20422;-77
2023/09/17 10:53:31;;;;;;;5.70;5.30;;;26.10;99.90;;;;;;5035783;28;20984;-78
2023/09/17 10:56:08;;;;;;;5.73;5.20;;;25.90;99.90;;;;;;5035108;28;20406;-78
2023/09/17 10:58:44;;;;;;;5.70;5.30;;;25.70;99.90;;;;;;5035586;28;20264;-78
2023/09/17 11:01:13;;;;;;;5.20;4.70;;;25.60;99.90;;;;;;5034146;28;20425;-80
2023/09/17 11:03:44;;;;;;;4.93;4.57;;;25.50;99.90;;;;;;5035738;28;20403;-77
2023/09/17 11:06:23;;;;;;;4.40;4.07;;;25.30;99.90;;;;;;5034908;28;20418;-78
2023/09/17 11:08:57;;;;;;;4.93;4.53;;;25.20;99.90;;;;;;5034330;28;20878;-77
2023/09/17 11:11:24;;;;;;;4.80;4.50;;;25.10;99.90;;;;;;5035530;28;20425;-78
2023/09/17 11:13:53;;;;;;;5.23;4.67;;;25.00;99.90;;;;;;5035467;28;20458;-78
2023/09/17 11:16:20;;;;;;;5.60;5.20;;;25.00;99.90;;;;;;5034744;28;20406;-76
2023/09/17 11:19:09;;;;;;;4.67;4.37;;;25.00;99.90;;;;;;5034736;28;20413;-78
2023/09/17 11:21:37;;;;;;;5.50;5.00;;;25.00;99.90;;;;;;5035367;28;20758;-77
2023/09/17 11:24:07;;;;;;;5.57;4.90;;;24.90;99.90;;;;;;5033917;28;20929;-79
2023/09/17 11:26:37;;;;;;;4.93;4.63;;;24.90;99.90;;;;;;5033335;28;20419;-77
2023/09/17 11:29:05;;;;;;;4.90;4.50;;;24.90;99.90;;;;;;5034269;28;20498;-77
2023/09/17 11:31:36;;;;;;;8.83;4.93;;;25.00;99.90;;;;;;5035132;28;20438;-78
2023/09/17 11:34:08;;;;;;;7.80;4.23;;;25.00;99.90;;;;;;5035064;28;20446;-78
2023/09/17 11:36:35;;;;;;;4.63;4.10;;;25.00;99.90;;;;;;5034362;28;20608;-77
2023/09/17 11:39:05;;;;;;;4.93;4.63;;;25.00;99.90;;;;;;5034479;28;20399;-76
2023/09/17 11:41:35;;;;;;;6.17;4.70;;;25.10;99.90;;;;;;5033709;28;20446;-77
2023/09/17 11:44:03;;;;;;;5.40;4.90;;;25.10;99.90;;;;;;5034734;28;20457;-77
2023/09/17 11:46:30;;;;;;;5.30;4.40;;;25.00;99.90;;;;;;5033795;28;20406;-78
2023/09/17 11:48:55;;;;;;;6.10;5.00;;;25.00;99.90;;;;;;5034667;28;20413;-77
2023/09/17 11:51:32;;;;;;;6.43;4.60;;;25.00;99.90;;;;;;5034888;28;20411;-78
2023/09/17 11:54:01;;;;;;;5.83;5.23;;;25.10;99.90;;;;;;5034222;28;20277;-79
2023/09/17 11:56:29;;;;;;;5.10;4.53;;;25.10;99.90;;;;;;5033844;28;20913;-77
2023/09/17 11:58:59;;;;;;;4.33;4.03;;;24.90;99.90;;;;;;5034726;28;20406;-77
2023/09/17 12:01:30;;;;;;;5.20;4.80;;;24.90;99.90;;;;;;5033185;28;20414;-77
2023/09/17 12:04:00;;;;;;;4.97;4.50;;;25.00;99.90;;;;;;5034591;28;20410;-77
2023/09/17 12:06:29;;;;;;;5.43;5.03;;;25.10;99.90;;;;;;5032508;28;20445;-77
2023/09/17 12:08:59;;;;;;;4.80;4.40;;;25.30;99.90;;;;;;5034415;28;20414;-78
2023/09/17 12:11:26;;;;;;;5.97;5.37;;;25.50;99.90;;;;;;5033778;28;20410;-78
2023/09/17 12:13:53;;;;;;;5.73;5.03;;;25.60;99.90;;;;;;5034366;28;20446;-78
2023/09/17 12:16:29;;;;;;;5.30;4.90;;;25.50;99.90;;;;;;5033599;28;20407;-78
2023/09/17 12:18:55;;;;;;;9.23;4.40;;;25.60;99.90;;;;;;5034203;28;20402;-77
2023/09/17 12:21:22;;;;;;;6.23;4.87;;;25.90;99.90;;;;;;5034242;28;20434;-78
2023/09/17 12:23:57;;;;;;;5.53;5.10;;;26.40;99.90;;;;;;5043366;28;20437;-78
2023/09/17 12:26:37;;;;;;;4.57;4.20;;;27.10;99.90;;;;;;5049172;28;20483;-78
2023/09/17 12:29:10;;;;;;;4.97;4.30;;;27.30;99.90;;;;;;5037086;28;20448;-78
2023/09/17 12:31:36;;;;;;;5.67;5.17;;;27.10;99.90;;;;;;5033347;28;20434;-77
2023/09/17 12:34:04;;;;;;;9.40;5.40;;;27.00;99.90;;;;;;5033794;28;20458;-77
2023/09/17 12:36:30;;;;;;;5.33;4.90;;;26.70;99.90;;;;;;5037863;28;20940;-78
2023/09/17 12:38:56;;;;;;;5.90;5.30;;;26.40;99.90;;;;;;5052484;28;20888;-77
2023/09/17 12:41:22;;;;;;;6.07;5.60;;;26.00;99.90;;;;;;5052631;28;20498;-80
2023/09/17 12:43:48;;;;;;;5.40;4.90;;;25.50;99.90;;;;;;5033857;28;20434;-79
2023/09/17 12:46:14;;;;;;;5.57;4.97;;;25.00;99.90;;;;;;5031738;28;20241;-78